Time,TemperatureF,DewpointF,PressureIn,WindDirection,WindDirectionDegrees,WindSpeedMPH,WindSpeedGustMPH,Humidity,HourlyPrecipIn,Conditions,Clouds,dailyrainin,SoftwareType,DateUTC
2013-04-11 00:22:00,70.6,-3.8,29.92,South,178,2.0,9.0,5,0.00,CLR,,0.00,WeatherDisplay:10.37,2013-04-11 04:22:00,
2013-04-11 00:59:00,68.9,-23.2,29.92,SSW,195,0.0,5.0,2,0.00,CLR,,0.00,WeatherDisplay:10.37,2013-04-11 04:59:00,
2013-04-11 01:59:00,67.6,-10.5,29.92,SW,220,0.0,12.0,4,0.00,CLR,,0.00,WeatherDisplay:10.37,2013-04-11 05:59:00,
2013-04-11 02:59:00,66.2,66.2,29.91,SW,215,0.0,10.0,100,0.00,,,0.00,WeatherDisplay:10.37,2013-04-11 06:59:00,
2013-04-11 07:59:00,64.4,64.4,29.94,WSW,238,3.0,15.0,100,0.00,,,0.00,WeatherDisplay:10.37,2013-04-11 11:59:00,
2013-04-11 08:59:00,66.9,66.9,29.95,WSW,240,2.0,13.0,100,0.00,,,0.00,WeatherDisplay:10.37,2013-04-11 12:59:00,
2013-04-11 09:59:00,70.9,70.9,29.94,WSW,237,3.0,18.0,100,0.00,,,0.00,WeatherDisplay:10.37,2013-04-11 13:59:00,
2013-04-11 10:59:00,72.4,72.4,29.94,SW,214,5.0,20.0,100,0.00,,,0.00,WeatherDisplay:10.37,2013-04-11 14:59:00,
2013-04-11 11:59:00,75.1,71.6,29.93,SW,224,3.0,16.0,89,0.00,,,0.00,WeatherDisplay:10.37,2013-04-11 15:59:00,
2013-04-11 12:59:00,77.9,24.8,29.89,SSW,203,3.0,15.0,14,0.00,CLR,,0.00,WeatherDisplay:10.37,2013-04-11 16:59:00,
2013-04-11 13:59:00,80.8,36.0,29.87,South,189,7.0,15.0,20,0.00,CLR,,0.00,WeatherDisplay:10.37,2013-04-11 17:59:00,
2013-04-11 14:59:00,80.6,38.2,29.84,West,260,2.0,15.0,22,0.00,CLR,,0.00,WeatherDisplay:10.37,2013-04-11 18:59:00,
2013-04-11 15:59:00,80.5,41.5,29.81,SW,235,6.0,14.0,25,0.00,CLR,,0.00,WeatherDisplay:10.37,2013-04-11 19:59:00,
2013-04-11 16:59:00,80.1,40.1,29.79,SSW,209,2.0,14.0,24,0.00,CLR,,0.00,WeatherDisplay:10.37,2013-04-11 20:59:00,
2013-04-11 17:59:00,79.5,37.3,29.77,South,188,0.0,10.0,22,0.00,CLR,,0.00,WeatherDisplay:10.37,2013-04-11 21:59:00,
2013-04-11 18:59:00,77.6,33.4,29.76,South,171,0.0,7.0,20,0.00,CLR,,0.00,WeatherDisplay:10.37,2013-04-11 22:59:00,
2013-04-11 19:59:00,74.0,21.7,29.76,South,177,0.0,5.0,14,0.00,CLR,,0.00,WeatherDisplay:10.37,2013-04-11 23:59:00,
2013-04-11 20:59:00,70.4,0.0,29.75,West,276,0.0,1.0,6,0.00,CLR,,0.00,WeatherDisplay:10.37,2013-04-12 00:59:00,
2013-04-11 21:59:00,72.9,-33.4,29.77,South,170,2.0,10.0,1,0.00,CLR,,0.00,WeatherDisplay:10.37,2013-04-12 01:59:00,
2013-04-11 22:59:00,73.1,73.1,29.76,South,177,6.0,17.0,100,0.00,,,0.00,WeatherDisplay:10.37,2013-04-12 02:59:00,
2013-04-11 23:59:00,72.0,72.0,29.76,South,184,3.0,16.0,100,0.00,,,0.00,WeatherDisplay:10.37,2013-04-12 03:59:00,